sensor_id;sensor_type;location;lat;lon;timestamp;P1;durP1;ratioP1;P2;durP2;ratioP2
75516;SDS011;64097;52.548;13.406;2024-01-30T06:02:45;9.02;;;7.05;;
75516;SDS011;64097;52.548;13.406;2024-01-30T06:05:11;8.50;;;6.25;;
75516;SDS011;64097;52.548;13.406;2024-01-30T06:07:37;10.23;;;7.70;;
75516;SDS011;64097;52.548;13.406;2024-01-30T06:10:03;12.48;;;8.85;;
75516;SDS011;64097;52.548;13.406;2024-01-30T06:12:29;10.80;;;8.57;;
75516;SDS011;64097;52.548;13.406;2024-01-30T06:14:55;10.65;;;8.02;;
75516;SDS011;64097;52.548;13.406;2024-01-30T06:17:22;10.20;;;7.22;;
75516;SDS011;64097;52.548;13.406;2024-01-30T06:19:48;8.82;;;7.38;;
75516;SDS011;64097;52.548;13.406;2024-01-30T06:22:14;8.07;;;6.82;;
75516;SDS011;64097;52.548;13.406;2024-01-30T06:24:40;9.40;;;7.40;;
75516;SDS011;64097;52.548;13.406;2024-01-30T06:27:06;8.45;;;7.15;;
75516;SDS011;64097;52.548;13.406;2024-01-30T06:29:32;8.43;;;6.93;;
75516;SDS011;64097;52.548;13.406;2024-01-30T06:31:57;8.60;;;7.03;;
75516;SDS011;64097;52.548;13.406;2024-01-30T06:34:23;8.27;;;6.90;;
75516;SDS011;64097;52.548;13.406;2024-01-30T06:36:51;8.55;;;7.10;;
75516;SDS011;64097;52.548;13.406;2024-01-30T06:39:17;9.52;;;6.90;;
75516;SDS011;64097;52.548;13.406;2024-01-30T06:41:42;9.07;;;7.35;;
75516;SDS011;64097;52.548;13.406;2024-01-30T06:44:09;8.82;;;6.97;;
75516;SDS011;64097;52.548;13.406;2024-01-30T06:46:35;11.55;;;7.45;;
75516;SDS011;64097;52.548;13.406;2024-01-30T06:49:02;10.25;;;7.05;;
75516;SDS011;64097;52.548;13.406;2024-01-30T06:51:27;8.40;;;6.20;;
75516;SDS011;64097;52.548;13.406;2024-01-30T06:53:53;8.35;;;7.13;;
75516;SDS011;64097;52.548;13.406;2024-01-30T06:56:19;9.50;;;6.97;;
75516;SDS011;64097;52.548;13.406;2024-01-30T06:58:49;8.93;;;6.90;;
75516;SDS011;64097;52.548;13.406;2024-01-30T07:01:15;9.73;;;7.28;;
75516;SDS011;64097;52.548;13.406;2024-01-30T07:03:41;9.20;;;7.72;;
75516;SDS011;64097;52.548;13.406;2024-01-30T07:06:07;9.82;;;7.07;;
75516;SDS011;64097;52.548;13.406;2024-01-30T07:08:34;9.05;;;7.28;;
75516;SDS011;64097;52.548;13.406;2024-01-30T07:10:59;8.88;;;7.22;;
75516;SDS011;64097;52.548;13.406;2024-01-30T07:13:26;9.93;;;7.50;;
75516;SDS011;64097;52.548;13.406;2024-01-30T07:15:53;9.57;;;7.28;;
75516;SDS011;64097;52.548;13.406;2024-01-30T07:18:19;10.73;;;7.60;;
75516;SDS011;64097;52.548;13.406;2024-01-30T07:20:44;10.57;;;7.78;;
75516;SDS011;64097;52.548;13.406;2024-01-30T07:23:14;10.20;;;7.75;;
75516;SDS011;64097;52.548;13.406;2024-01-30T07:25:43;10.93;;;8.13;;
75516;SDS011;64097;52.548;13.406;2024-01-30T07:28:09;10.00;;;7.90;;
75516;SDS011;64097;52.548;13.406;2024-01-30T07:30:36;9.68;;;7.55;;
75516;SDS011;64097;52.548;13.406;2024-01-30T07:33:02;9.52;;;7.38;;
75516;SDS011;64097;52.548;13.406;2024-01-30T07:35:28;10.00;;;8.07;;
75516;SDS011;64097;52.548;13.406;2024-01-30T07:37:53;10.57;;;7.47;;
75516;SDS011;64097;52.548;13.406;2024-01-30T07:40:19;10.43;;;7.90;;
75516;SDS011;64097;52.548;13.406;2024-01-30T07:42:45;12.50;;;8.05;;
75516;SDS011;64097;52.548;13.406;2024-01-30T07:45:10;10.45;;;7.80;;
75516;SDS011;64097;52.548;13.406;2024-01-30T07:47:37;9.38;;;7.43;;
75516;SDS011;64097;52.548;13.406;2024-01-30T07:50:03;10.27;;;7.75;;
75516;SDS011;64097;52.548;13.406;2024-01-30T07:52:29;11.38;;;8.15;;
75516;SDS011;64097;52.548;13.406;2024-01-30T07:54:55;11.25;;;8.35;;
75516;SDS011;64097;52.548;13.406;2024-01-30T07:57:20;9.82;;;8.05;;
75516;SDS011;64097;52.548;13.406;2024-01-30T07:59:46;10.25;;;8.23;;
75516;SDS011;64097;52.548;13.406;2024-01-30T08:02:12;10.65;;;8.73;;
75516;SDS011;64097;52.548;13.406;2024-01-30T08:04:38;11.02;;;8.63;;
75516;SDS011;64097;52.548;13.406;2024-01-30T08:07:04;8.77;;;7.35;;
75516;SDS011;64097;52.548;13.406;2024-01-30T08:09:30;9.75;;;7.82;;
75516;SDS011;64097;52.548;13.406;2024-01-30T08:11:56;10.35;;;8.32;;
75516;SDS011;64097;52.548;13.406;2024-01-30T08:14:21;10.07;;;8.10;;
75516;SDS011;64097;52.548;13.406;2024-01-30T08:16:47;10.63;;;8.23;;
75516;SDS011;64097;52.548;13.406;2024-01-30T08:19:14;10.07;;;8.40;;
75516;SDS011;64097;52.548;13.406;2024-01-30T08:21:40;10.80;;;8.52;;
75516;SDS011;64097;52.548;13.406;2024-01-30T08:24:06;10.70;;;8.35;;
75516;SDS011;64097;52.548;13.406;2024-01-30T08:26:32;11.18;;;8.48;;
75516;SDS011;64097;52.548;13.406;2024-01-30T08:28:58;9.80;;;8.07;;
75516;SDS011;64097;52.548;13.406;2024-01-30T08:31:24;9.27;;;7.85;;
75516;SDS011;64097;52.548;13.406;2024-01-30T08:33:49;9.82;;;8.02;;
75516;SDS011;64097;52.548;13.406;2024-01-30T08:36:16;10.30;;;8.70;;
75516;SDS011;64097;52.548;13.406;2024-01-30T08:38:42;12.27;;;8.52;;
75516;SDS011;64097;52.548;13.406;2024-01-30T08:41:08;9.73;;;7.40;;
75516;SDS011;64097;52.548;13.406;2024-01-30T08:43:33;9.95;;;7.63;;
75516;SDS011;64097;52.548;13.406;2024-01-30T08:45:59;9.95;;;7.47;;
75516;SDS011;64097;52.548;13.406;2024-01-30T08:48:26;10.15;;;7.30;;
75516;SDS011;64097;52.548;13.406;2024-01-30T08:50:52;13.65;;;7.88;;
75516;SDS011;64097;52.548;13.406;2024-01-30T08:53:18;10.98;;;7.45;;
75516;SDS011;64097;52.548;13.406;2024-01-30T08:55:44;11.23;;;7.45;;
75516;SDS011;64097;52.548;13.406;2024-01-30T08:58:10;9.00;;;6.97;;
75516;SDS011;64097;52.548;13.406;2024-01-30T09:00:36;12.40;;;8.20;;
75516;SDS011;64097;52.548;13.406;2024-01-30T09:03:01;8.70;;;7.15;;
75516;SDS011;64097;52.548;13.406;2024-01-30T09:05:28;9.65;;;7.72;;
75516;SDS011;64097;52.548;13.406;2024-01-30T09:07:54;10.90;;;8.18;;
75516;SDS011;64097;52.548;13.406;2024-01-30T09:10:19;9.50;;;7.43;;
75516;SDS011;64097;52.548;13.406;2024-01-30T09:12:45;10.02;;;7.95;;
75516;SDS011;64097;52.548;13.406;2024-01-30T09:15:12;9.02;;;7.35;;
75516;SDS011;64097;52.548;13.406;2024-01-30T09:17:38;10.10;;;7.85;;
75516;SDS011;64097;52.548;13.406;2024-01-30T09:20:04;10.18;;;7.93;;
75516;SDS011;64097;52.548;13.406;2024-01-30T09:22:31;8.85;;;7.50;;
75516;SDS011;64097;52.548;13.406;2024-01-30T09:24:57;10.20;;;7.63;;
75516;SDS011;64097;52.548;13.406;2024-01-30T09:27:23;10.02;;;7.45;;
75516;SDS011;64097;52.548;13.406;2024-01-30T09:29:48;9.70;;;7.85;;
75516;SDS011;64097;52.548;13.406;2024-01-30T09:32:14;8.38;;;7.10;;
75516;SDS011;64097;52.548;13.406;2024-01-30T09:34:40;11.05;;;8.20;;
75516;SDS011;64097;52.548;13.406;2024-01-30T09:37:06;9.10;;;7.57;;
75516;SDS011;64097;52.548;13.406;2024-01-30T09:39:32;9.75;;;7.30;;
75516;SDS011;64097;52.548;13.406;2024-01-30T09:44:41;9.50;;;7.60;;
75516;SDS011;64097;52.548;13.406;2024-01-30T09:47:09;10.77;;;7.72;;
75516;SDS011;64097;52.548;13.406;2024-01-30T09:49:35;11.00;;;7.95;;
75516;SDS011;64097;52.548;13.406;2024-01-30T09:52:03;10.15;;;8.00;;
75516;SDS011;64097;52.548;13.406;2024-01-30T09:54:30;11.23;;;7.88;;
75516;SDS011;64097;52.548;13.406;2024-01-30T09:56:57;11.88;;;8.45;;
75516;SDS011;64097;52.548;13.406;2024-01-30T09:59:25;9.07;;;7.70;;
75516;SDS011;64097;52.548;13.406;2024-01-30T10:01:51;10.68;;;7.55;;
75516;SDS011;64097;52.548;13.406;2024-01-30T10:04:17;9.85;;;7.45;;
75516;SDS011;64097;52.548;13.406;2024-01-30T10:06:43;9.10;;;7.40;;
75516;SDS011;64097;52.548;13.406;2024-01-30T10:09:08;9.43;;;7.65;;
75516;SDS011;64097;52.548;13.406;2024-01-30T10:11:35;9.23;;;7.20;;
75516;SDS011;64097;52.548;13.406;2024-01-30T10:14:01;10.95;;;8.23;;
75516;SDS011;64097;52.548;13.406;2024-01-30T10:16:27;9.20;;;7.05;;
75516;SDS011;64097;52.548;13.406;2024-01-30T10:18:53;8.23;;;6.70;;
75516;SDS011;64097;52.548;13.406;2024-01-30T10:21:19;8.98;;;7.35;;
75516;SDS011;64097;52.548;13.406;2024-01-30T10:23:44;9.25;;;7.38;;
75516;SDS011;64097;52.548;13.406;2024-01-30T10:26:10;8.40;;;6.82;;
75516;SDS011;64097;52.548;13.406;2024-01-30T10:28:36;8.88;;;6.88;;
75516;SDS011;64097;52.548;13.406;2024-01-30T10:31:02;8.05;;;6.90;;
75516;SDS011;64097;52.548;13.406;2024-01-30T10:33:29;8.40;;;6.80;;
75516;SDS011;64097;52.548;13.406;2024-01-30T10:36:04;8.75;;;7.05;;
75516;SDS011;64097;52.548;13.406;2024-01-30T10:38:31;9.85;;;7.07;;
75516;SDS011;64097;52.548;13.406;2024-01-30T10:40:58;9.02;;;6.38;;
75516;SDS011;64097;52.548;13.406;2024-01-30T10:43:30;10.40;;;6.80;;
75516;SDS011;64097;52.548;13.406;2024-01-30T10:45:57;8.70;;;6.10;;
75516;SDS011;64097;52.548;13.406;2024-01-30T10:48:29;9.10;;;6.70;;
75516;SDS011;64097;52.548;13.406;2024-01-30T10:50:57;6.68;;;5.88;;
75516;SDS011;64097;52.548;13.406;2024-01-30T10:53:25;7.00;;;6.25;;
75516;SDS011;64097;52.548;13.406;2024-01-30T10:55:52;7.68;;;6.10;;
75516;SDS011;64097;52.548;13.406;2024-01-30T10:58:20;8.00;;;6.38;;
75516;SDS011;64097;52.548;13.406;2024-01-30T11:00:47;9.80;;;6.78;;
75516;SDS011;64097;52.548;13.406;2024-01-30T11:03:15;8.13;;;6.43;;
75516;SDS011;64097;52.548;13.406;2024-01-30T11:05:42;7.97;;;6.78;;
75516;SDS011;64097;52.548;13.406;2024-01-30T11:08:11;8.50;;;7.15;;
75516;SDS011;64097;52.548;13.406;2024-01-30T11:10:44;7.80;;;6.15;;
75516;SDS011;64097;52.548;13.406;2024-01-30T11:13:14;8.60;;;6.70;;
75516;SDS011;64097;52.548;13.406;2024-01-30T11:15:40;8.55;;;6.38;;
75516;SDS011;64097;52.548;13.406;2024-01-30T11:18:06;8.05;;;6.70;;
75516;SDS011;64097;52.548;13.406;2024-01-30T11:20:32;7.82;;;6.70;;
75516;SDS011;64097;52.548;13.406;2024-01-30T11:22:58;7.63;;;6.57;;
75516;SDS011;64097;52.548;13.406;2024-01-30T11:25:27;8.88;;;6.40;;
75516;SDS011;64097;52.548;13.406;2024-01-30T11:27:53;8.35;;;6.65;;
75516;SDS011;64097;52.548;13.406;2024-01-30T11:30:32;9.15;;;7.03;;
75516;SDS011;64097;52.548;13.406;2024-01-30T11:33:04;7.93;;;6.70;;
75516;SDS011;64097;52.548;13.406;2024-01-30T11:35:36;8.32;;;6.45;;
75516;SDS011;64097;52.548;13.406;2024-01-30T11:38:07;7.97;;;6.30;;
75516;SDS011;64097;52.548;13.406;2024-01-30T11:40:34;8.00;;;6.30;;
75516;SDS011;64097;52.548;13.406;2024-01-30T11:43:01;9.02;;;6.28;;
75516;SDS011;64097;52.548;13.406;2024-01-30T11:45:29;9.30;;;6.57;;
75516;SDS011;64097;52.548;13.406;2024-01-30T11:47:56;10.13;;;6.80;;
75516;SDS011;64097;52.548;13.406;2024-01-30T11:50:22;9.65;;;6.32;;
75516;SDS011;64097;52.548;13.406;2024-01-30T11:52:49;10.63;;;6.25;;
75516;SDS011;64097;52.548;13.406;2024-01-30T11:55:15;12.40;;;7.00;;
75516;SDS011;64097;52.548;13.406;2024-01-30T11:57:42;7.75;;;6.35;;
75516;SDS011;64097;52.548;13.406;2024-01-30T12:00:16;7.07;;;5.97;;
75516;SDS011;64097;52.548;13.406;2024-01-30T12:02:52;7.72;;;6.22;;
75516;SDS011;64097;52.548;13.406;2024-01-30T12:05:22;8.88;;;6.70;;
75516;SDS011;64097;52.548;13.406;2024-01-30T12:07:51;9.60;;;6.95;;
75516;SDS011;64097;52.548;13.406;2024-01-30T12:10:17;8.45;;;7.00;;
75516;SDS011;64097;52.548;13.406;2024-01-30T12:12:47;8.82;;;6.57;;
75516;SDS011;64097;52.548;13.406;2024-01-30T12:15:14;8.27;;;6.40;;
75516;SDS011;64097;52.548;13.406;2024-01-30T12:17:41;8.75;;;6.22;;
75516;SDS011;64097;52.548;13.406;2024-01-30T12:22:40;8.77;;;6.40;;
75516;SDS011;64097;52.548;13.406;2024-01-30T12:25:08;8.18;;;6.93;;
75516;SDS011;64097;52.548;13.406;2024-01-30T12:27:34;7.95;;;6.60;;
75516;SDS011;64097;52.548;13.406;2024-01-30T12:30:01;9.95;;;6.93;;
75516;SDS011;64097;52.548;13.406;2024-01-30T12:32:29;8.40;;;6.80;;
75516;SDS011;64097;52.548;13.406;2024-01-30T12:34:55;9.65;;;6.95;;
75516;SDS011;64097;52.548;13.406;2024-01-30T12:37:22;8.50;;;6.45;;
75516;SDS011;64097;52.548;13.406;2024-01-30T12:39:49;8.57;;;6.80;;
75516;SDS011;64097;52.548;13.406;2024-01-30T12:42:19;9.80;;;6.55;;
75516;SDS011;64097;52.548;13.406;2024-01-30T12:44:46;7.80;;;6.95;;
75516;SDS011;64097;52.548;13.406;2024-01-30T12:47:13;9.13;;;7.30;;
75516;SDS011;64097;52.548;13.406;2024-01-30T12:49:41;7.85;;;6.57;;
75516;SDS011;64097;52.548;13.406;2024-01-30T12:52:08;7.82;;;6.60;;
75516;SDS011;64097;52.548;13.406;2024-01-30T12:54:34;7.70;;;6.47;;
75516;SDS011;64097;52.548;13.406;2024-01-30T12:56:59;8.13;;;6.55;;
75516;SDS011;64097;52.548;13.406;2024-01-30T12:59:25;7.00;;;6.20;;
75516;SDS011;64097;52.548;13.406;2024-01-30T13:01:51;8.38;;;6.95;;
75516;SDS011;64097;52.548;13.406;2024-01-30T13:04:16;7.82;;;6.30;;
75516;SDS011;64097;52.548;13.406;2024-01-30T13:06:42;9.13;;;6.55;;
75516;SDS011;64097;52.548;13.406;2024-01-30T13:09:08;8.10;;;6.43;;
75516;SDS011;64097;52.548;13.406;2024-01-30T13:11:34;7.43;;;6.07;;
75516;SDS011;64097;52.548;13.406;2024-01-30T13:14:00;11.15;;;7.68;;
75516;SDS011;64097;52.548;13.406;2024-01-30T13:16:25;9.43;;;6.63;;
75516;SDS011;64097;52.548;13.406;2024-01-30T13:18:51;8.45;;;6.80;;
75516;SDS011;64097;52.548;13.406;2024-01-30T13:21:17;8.82;;;6.70;;
75516;SDS011;64097;52.548;13.406;2024-01-30T13:23:43;8.20;;;6.40;;
75516;SDS011;64097;52.548;13.406;2024-01-30T13:26:08;8.52;;;6.38;;
75516;SDS011;64097;52.548;13.406;2024-01-30T13:28:34;8.05;;;6.78;;
75516;SDS011;64097;52.548;13.406;2024-01-30T13:31:00;10.50;;;7.40;;
75516;SDS011;64097;52.548;13.406;2024-01-30T13:33:26;9.40;;;6.63;;
75516;SDS011;64097;52.548;13.406;2024-01-30T13:35:51;6.95;;;6.18;;
75516;SDS011;64097;52.548;13.406;2024-01-30T13:38:17;7.50;;;6.68;;
75516;SDS011;64097;52.548;13.406;2024-01-30T13:40:43;8.15;;;6.22;;
75516;SDS011;64097;52.548;13.406;2024-01-30T13:43:09;8.80;;;6.70;;
75516;SDS011;64097;52.548;13.406;2024-01-30T13:45:34;7.97;;;6.72;;
75516;SDS011;64097;52.548;13.406;2024-01-30T13:48:00;7.68;;;6.45;;
75516;SDS011;64097;52.548;13.406;2024-01-30T13:50:28;8.85;;;6.35;;
75516;SDS011;64097;52.548;13.406;2024-01-30T13:52:54;6.90;;;5.90;;
75516;SDS011;64097;52.548;13.406;2024-01-30T13:55:20;8.85;;;6.00;;
75516;SDS011;64097;52.548;13.406;2024-01-30T13:57:46;6.88;;;5.70;;
